createdAt,value
2018-03-23T00:00:42.439Z,7.00
2018-03-23T00:03:10.603Z,7.00
2018-03-23T00:05:38.729Z,7.00
2018-03-23T00:08:06.850Z,7.00
2018-03-23T00:10:35.007Z,6.90
2018-03-23T00:13:04.031Z,6.90
2018-03-23T00:15:32.156Z,6.80
2018-03-23T00:18:00.303Z,6.90
2018-03-23T00:20:28.955Z,6.80
2018-03-23T00:22:57.082Z,6.90
2018-03-23T00:25:25.208Z,6.90
2018-03-23T00:27:53.372Z,7.00
2018-03-23T00:30:21.500Z,7.00
2018-03-23T00:32:49.647Z,7.10
2018-03-23T00:35:17.776Z,7.20
2018-03-23T00:37:46.424Z,7.20
2018-03-23T00:40:14.584Z,7.20
2018-03-23T00:42:42.720Z,7.20
2018-03-23T00:45:10.861Z,7.20
2018-03-23T00:47:39.798Z,7.00
2018-03-23T00:50:07.935Z,7.00
2018-03-23T00:52:36.060Z,7.00
2018-03-23T00:55:04.216Z,7.00
2018-03-23T00:57:32.360Z,6.90
2018-03-23T01:00:00.475Z,6.90
2018-03-23T01:02:28.626Z,6.80
2018-03-23T01:04:56.899Z,6.80
2018-03-23T01:07:25.775Z,6.80
2018-03-23T01:09:53.955Z,6.70
2018-03-23T01:12:22.126Z,6.70
2018-03-23T01:14:51.168Z,6.50
2018-03-23T01:17:19.303Z,6.30
2018-03-23T01:19:47.447Z,6.20
2018-03-23T01:22:17.142Z,6.00
2018-03-23T01:24:46.076Z,6.00
2018-03-23T01:27:14.242Z,6.00
2018-03-23T01:29:42.367Z,6.00
2018-03-23T01:32:10.507Z,5.90
2018-03-23T01:34:38.628Z,5.90
2018-03-23T01:37:07.551Z,5.80
2018-03-23T01:39:35.676Z,5.70
2018-03-23T01:42:04.567Z,5.80
2018-03-23T01:44:33.476Z,5.80
2018-03-23T01:47:01.595Z,5.70
2018-03-23T01:49:29.711Z,5.80
2018-03-23T01:51:58.624Z,5.80
2018-03-23T01:54:26.783Z,5.80
2018-03-23T01:56:54.972Z,5.80
2018-03-23T01:59:23.092Z,5.80
2018-03-23T02:01:51.236Z,5.70
2018-03-23T02:04:19.394Z,5.60
2018-03-23T02:06:47.563Z,5.50
2018-03-23T02:09:15.700Z,5.50
2018-03-23T02:11:44.579Z,5.50
2018-03-23T02:14:12.787Z,5.50
2018-03-23T02:16:40.907Z,5.50
2018-03-23T02:19:09.039Z,5.50
2018-03-23T02:21:37.176Z,5.50
2018-03-23T02:24:06.091Z,5.60
2018-03-23T02:26:34.272Z,5.60
2018-03-23T02:29:02.719Z,5.60
2018-03-23T02:31:31.623Z,5.70
2018-03-23T02:34:00.542Z,5.70
2018-03-23T02:36:28.697Z,5.70
2018-03-23T02:38:56.841Z,5.70
2018-03-23T02:41:25.736Z,5.80
2018-03-23T02:43:54.716Z,5.80
2018-03-23T02:46:22.976Z,5.80
2018-03-23T02:48:51.308Z,5.80
2018-03-23T02:51:19.473Z,5.90
2018-03-23T02:53:47.626Z,5.90
2018-03-23T02:56:16.523Z,5.90
2018-03-23T02:58:45.422Z,5.90
2018-03-23T03:01:13.607Z,5.90
2018-03-23T03:03:41.731Z,6.00
2018-03-23T03:06:09.867Z,5.90
2018-03-23T03:08:38.119Z,5.90
2018-03-23T03:11:06.304Z,5.80
2018-03-23T03:13:34.424Z,5.80
2018-03-23T03:16:02.639Z,5.80
2018-03-23T03:18:30.755Z,5.80
2018-03-23T03:20:59.288Z,5.80
2018-03-23T03:23:27.403Z,5.80
2018-03-23T03:25:55.910Z,5.80
2018-03-23T03:28:24.051Z,5.80
2018-03-23T03:30:52.181Z,5.80
2018-03-23T03:33:20.334Z,5.80
2018-03-23T03:35:49.223Z,5.70
2018-03-23T03:38:18.543Z,5.70
2018-03-23T03:40:46.667Z,5.70
2018-03-23T03:43:14.963Z,5.60
2018-03-23T03:45:43.084Z,5.60
2018-03-23T03:48:11.231Z,5.50
2018-03-23T03:50:40.244Z,5.50
2018-03-23T03:53:08.732Z,5.40
2018-03-23T03:55:36.896Z,5.50
2018-03-23T03:58:05.044Z,5.50
2018-03-23T04:00:33.930Z,5.50
2018-03-23T04:03:02.816Z,5.40
2018-03-23T04:05:31.719Z,5.40
2018-03-23T04:08:00.718Z,5.40
2018-03-23T04:10:29.126Z,5.40
2018-03-23T04:12:57.261Z,5.40
2018-03-23T04:15:26.150Z,5.50
2018-03-23T04:17:55.163Z,5.50
2018-03-23T04:20:23.284Z,5.50
2018-03-23T04:22:51.408Z,5.50
2018-03-23T04:25:19.951Z,5.60
2018-03-23T04:27:48.882Z,5.50
2018-03-23T04:30:17.772Z,5.50
2018-03-23T04:32:45.892Z,5.50
2018-03-23T04:35:14.653Z,5.50
2018-03-23T04:37:42.787Z,5.50
2018-03-23T04:40:10.963Z,5.50
2018-03-23T04:42:39.102Z,5.50
2018-03-23T04:45:07.224Z,5.60
2018-03-23T04:47:35.360Z,5.60
2018-03-23T04:50:04.244Z,5.70
2018-03-23T04:52:33.147Z,5.60
2018-03-23T04:55:02.052Z,5.70
2018-03-23T04:57:30.211Z,5.70
2018-03-23T04:59:59.097Z,5.70
2018-03-23T05:02:27.923Z,5.70
2018-03-23T05:04:56.064Z,5.70
2018-03-23T05:07:24.187Z,5.60
2018-03-23T05:09:52.315Z,5.60
2018-03-23T05:12:20.467Z,5.60
2018-03-23T05:14:49.411Z,5.70
2018-03-23T05:17:17.536Z,5.70
2018-03-23T05:19:46.455Z,5.80
2018-03-23T05:22:14.575Z,5.80
2018-03-23T05:24:42.736Z,5.80
2018-03-23T05:27:10.870Z,5.80
2018-03-23T05:29:39.025Z,5.90
2018-03-23T05:32:07.169Z,5.90
2018-03-23T05:34:36.083Z,6.00
2018-03-23T05:37:04.280Z,5.90
2018-03-23T05:39:32.489Z,5.90
2018-03-23T05:42:00.567Z,6.00
2018-03-23T05:44:28.708Z,6.00
2018-03-23T05:46:56.852Z,6.00
2018-03-23T05:49:24.995Z,6.10
2018-03-23T05:51:54.452Z,6.00
2018-03-23T05:54:22.616Z,6.00
2018-03-23T05:56:50.735Z,6.00
2018-03-23T05:59:18.862Z,5.90
2018-03-23T06:01:47.008Z,5.90
2018-03-23T06:04:15.137Z,5.90
2018-03-23T06:06:43.284Z,6.00
2018-03-23T06:09:11.467Z,5.90
2018-03-23T06:11:39.592Z,5.90
2018-03-23T06:14:08.495Z,5.90
2018-03-23T06:16:36.647Z,5.90
2018-03-23T06:19:06.056Z,5.90
2018-03-23T06:21:34.955Z,5.90
2018-03-23T06:24:03.091Z,5.90
2018-03-23T06:26:31.224Z,5.90
2018-03-23T06:28:59.380Z,5.90
2018-03-23T06:31:27.555Z,5.90
2018-03-23T06:33:55.691Z,6.00
2018-03-23T06:36:24.611Z,6.00
2018-03-23T06:38:52.751Z,6.00
2018-03-23T06:41:21.643Z,6.00
2018-03-23T06:43:50.562Z,6.00
2018-03-23T06:46:18.692Z,6.00
2018-03-23T06:48:46.853Z,6.00
2018-03-23T06:51:14.967Z,6.10
2018-03-23T06:53:43.112Z,6.10
2018-03-23T06:56:11.267Z,6.10
2018-03-23T06:58:39.395Z,6.00
2018-03-23T07:01:07.519Z,6.00
2018-03-23T07:03:35.675Z,6.10
2018-03-23T07:06:03.797Z,6.10
2018-03-23T07:08:32.704Z,6.30
2018-03-23T07:11:00.885Z,6.30
2018-03-23T07:13:29.052Z,6.40
2018-03-23T07:15:57.184Z,6.50
2018-03-23T07:18:25.327Z,6.60
2018-03-23T07:20:53.466Z,6.70
2018-03-23T07:23:21.619Z,6.70
2018-03-23T07:25:50.540Z,6.80
2018-03-23T07:28:18.776Z,6.80
2018-03-23T07:30:47.696Z,6.80
2018-03-23T07:33:15.862Z,6.80
2018-03-23T07:35:44.043Z,6.80
2018-03-23T07:38:12.176Z,6.70
2018-03-23T07:40:40.292Z,6.80
2018-03-23T07:43:08.440Z,6.80
2018-03-23T07:45:36.636Z,6.80
2018-03-23T07:48:04.820Z,7.00
2018-03-23T07:50:32.947Z,7.10
2018-03-23T07:53:01.864Z,7.50
2018-03-23T07:55:29.993Z,7.50
2018-03-23T07:57:58.224Z,7.70
2018-03-23T08:00:26.371Z,7.90
2018-03-23T08:02:54.503Z,8.10
2018-03-23T08:05:22.656Z,8.20
2018-03-23T08:07:50.780Z,8.40
2018-03-23T08:10:18.939Z,8.50
2018-03-23T08:12:47.883Z,8.30
2018-03-23T08:15:16.019Z,8.40
2018-03-23T08:17:44.939Z,8.60
2018-03-23T08:20:13.085Z,8.50
2018-03-23T08:22:41.255Z,8.60
2018-03-23T08:25:09.392Z,8.80
2018-03-23T08:27:37.525Z,8.60
2018-03-23T08:30:05.701Z,8.50
2018-03-23T08:32:33.862Z,8.30
2018-03-23T08:35:02.185Z,8.20
2018-03-23T08:37:30.959Z,8.10
2018-03-23T08:39:59.091Z,8.10
2018-03-23T08:42:27.219Z,8.30
2018-03-23T08:44:55.417Z,8.40
2018-03-23T08:47:23.520Z,8.60
2018-03-23T08:49:51.711Z,8.60
2018-03-23T08:52:19.999Z,8.70
2018-03-23T08:54:48.168Z,8.80
2018-03-23T08:57:16.317Z,8.80
2018-03-23T08:59:44.471Z,8.90
2018-03-23T09:02:13.260Z,9.00
2018-03-23T09:04:41.382Z,9.00
2018-03-23T09:07:09.540Z,9.00
2018-03-23T09:09:37.714Z,9.00
2018-03-23T09:12:05.815Z,9.10
2018-03-23T09:14:34.744Z,9.10
2018-03-23T09:17:02.876Z,9.10
2018-03-23T09:19:31.027Z,9.10
2018-03-23T09:21:59.159Z,9.10
2018-03-23T09:24:27.340Z,9.20
2018-03-23T09:26:55.625Z,9.20
2018-03-23T09:29:23.866Z,9.20
2018-03-23T09:31:52.002Z,9.20
2018-03-23T09:34:20.150Z,9.20
2018-03-23T09:36:48.296Z,9.30
2018-03-23T09:39:16.464Z,9.20
2018-03-23T09:41:44.612Z,9.30
2018-03-23T09:44:13.519Z,9.40
2018-03-23T09:46:42.431Z,9.40
2018-03-23T09:49:10.568Z,9.40
2018-03-23T09:51:39.487Z,9.70
2018-03-23T09:54:07.616Z,9.70
2018-03-23T09:56:36.349Z,9.90
2018-03-23T09:59:04.480Z,10.00
2018-03-23T10:01:32.635Z,10.00
2018-03-23T10:04:01.651Z,9.90
2018-03-23T10:06:29.757Z,9.90
2018-03-23T10:08:58.032Z,9.80
2018-03-23T10:11:26.164Z,9.70
2018-03-23T10:13:54.309Z,9.60
2018-03-23T10:16:22.448Z,9.60
2018-03-23T10:18:50.607Z,9.60
2018-03-23T10:21:18.758Z,9.60
2018-03-23T10:23:46.928Z,9.70
2018-03-23T10:26:15.135Z,9.70
2018-03-23T10:28:43.283Z,9.80
2018-03-23T10:31:12.196Z,10.00
2018-03-23T10:33:40.372Z,10.00
2018-03-23T10:36:08.564Z,10.00
2018-03-23T10:38:36.728Z,10.10
2018-03-23T10:41:04.855Z,10.20
2018-03-23T10:43:33.030Z,10.20
2018-03-23T10:46:01.947Z,10.20
2018-03-23T10:48:30.080Z,10.20
2018-03-23T10:50:58.247Z,10.20
2018-03-23T10:53:26.396Z,10.20
2018-03-23T10:55:55.385Z,10.30
2018-03-23T10:58:23.603Z,10.30
2018-03-23T11:00:58.116Z,10.30
2018-03-23T11:03:26.374Z,10.30
2018-03-23T11:05:54.463Z,10.40
2018-03-23T11:08:22.692Z,10.60
2018-03-23T11:10:50.910Z,10.80
2018-03-23T11:13:19.053Z,11.00
2018-03-23T11:15:47.215Z,11.10
2018-03-23T11:18:15.343Z,11.10
2018-03-23T11:20:44.268Z,10.90
2018-03-23T11:23:12.426Z,10.90
2018-03-23T11:25:41.241Z,10.90
2018-03-23T11:28:09.371Z,11.00
2018-03-23T11:30:38.276Z,11.00
2018-03-23T11:33:06.433Z,11.00
2018-03-23T11:35:35.340Z,10.80
2018-03-23T11:38:03.620Z,10.80
2018-03-23T11:40:31.771Z,10.60
2018-03-23T11:43:00.689Z,10.70
2018-03-23T11:45:28.836Z,10.70
2018-03-23T11:47:57.031Z,10.70
2018-03-23T11:50:25.159Z,10.80
2018-03-23T11:52:54.127Z,10.90
2018-03-23T11:55:22.264Z,11.00
2018-03-23T11:57:50.430Z,11.20
2018-03-23T12:00:18.584Z,11.40
2018-03-23T12:02:47.491Z,11.60
2018-03-23T12:05:15.657Z,11.60
2018-03-23T12:07:43.798Z,11.70
2018-03-23T12:10:11.935Z,11.80
2018-03-23T12:12:40.196Z,11.70
2018-03-23T12:15:08.408Z,11.70
2018-03-23T12:17:36.573Z,11.60
2018-03-23T12:20:04.715Z,11.60
2018-03-23T12:22:32.928Z,11.70
2018-03-23T12:25:01.063Z,11.70
2018-03-23T12:27:29.225Z,11.50
2018-03-23T12:29:57.384Z,11.50
2018-03-23T12:32:26.283Z,11.60
2018-03-23T12:34:54.463Z,11.60
2018-03-23T12:37:23.359Z,11.50
2018-03-23T12:39:51.492Z,11.50
2018-03-23T12:42:20.463Z,11.60
2018-03-23T12:44:48.622Z,11.60
2018-03-23T12:47:17.698Z,11.50
2018-03-23T12:49:45.840Z,11.50
2018-03-23T12:52:14.790Z,11.20
2018-03-23T12:54:42.967Z,11.20
2018-03-23T12:57:11.100Z,11.30
2018-03-23T12:59:39.228Z,11.30
2018-03-23T13:02:07.377Z,11.40
2018-03-23T13:04:35.529Z,11.50
2018-03-23T13:07:03.695Z,11.50
2018-03-23T13:09:31.875Z,11.70
2018-03-23T13:12:00.007Z,11.70
2018-03-23T13:14:28.151Z,11.80
2018-03-23T13:16:56.839Z,11.80
2018-03-23T13:19:25.791Z,11.90
2018-03-23T13:21:53.938Z,11.90
2018-03-23T13:24:22.258Z,12.00
2018-03-23T13:26:50.684Z,12.00
2018-03-23T13:29:18.845Z,11.90
2018-03-23T13:31:47.754Z,11.70
2018-03-23T13:34:15.928Z,11.60
2018-03-23T13:36:44.076Z,11.60
2018-03-23T13:39:12.972Z,11.60
2018-03-23T13:41:41.886Z,11.40
2018-03-23T13:44:10.091Z,11.40
2018-03-23T13:46:38.344Z,11.10
2018-03-23T13:49:06.501Z,10.80
2018-03-23T13:51:34.678Z,10.70
2018-03-23T13:54:02.851Z,10.70
2018-03-23T13:56:31.101Z,10.60
2018-03-23T13:59:05.748Z,10.70
2018-03-23T14:01:39.641Z,10.70
2018-03-23T14:04:07.807Z,10.80
2018-03-23T14:06:36.710Z,11.10
2018-03-23T14:09:05.803Z,11.10
2018-03-23T14:11:35.459Z,11.20
2018-03-23T14:14:03.676Z,11.20
2018-03-23T14:16:33.000Z,11.20
2018-03-23T14:19:01.133Z,11.20
2018-03-23T14:21:29.342Z,11.20
2018-03-23T14:23:57.724Z,11.20
2018-03-23T14:26:26.032Z,11.10
2018-03-23T14:28:54.269Z,11.10
2018-03-23T14:31:22.372Z,11.00
2018-03-23T14:33:50.526Z,10.90
2018-03-23T14:36:18.655Z,10.80
2018-03-23T14:38:47.586Z,10.70
2018-03-23T14:41:15.747Z,10.70
2018-03-23T14:43:43.900Z,10.60
2018-03-23T14:46:12.948Z,10.80
2018-03-23T14:48:41.247Z,10.80
2018-03-23T14:51:09.727Z,10.90
2018-03-23T14:53:39.831Z,11.00
2018-03-23T14:56:20.987Z,10.90
2018-03-23T15:01:46.516Z,11.00
2018-03-23T15:04:14.711Z,11.00
2018-03-23T15:06:42.888Z,10.90
2018-03-23T15:09:11.127Z,10.90
2018-03-23T15:11:39.328Z,10.90
2018-03-23T15:14:18.943Z,10.80
2018-03-23T15:16:47.256Z,10.80
2018-03-23T15:19:15.407Z,10.40
2018-03-23T15:21:43.685Z,10.50
2018-03-23T15:24:11.875Z,10.50
2018-03-23T15:26:40.110Z,10.50
2018-03-23T15:29:08.281Z,10.50
2018-03-23T15:31:36.851Z,10.40
2018-03-23T15:34:05.292Z,10.30
2018-03-23T15:36:33.456Z,10.30
2018-03-23T15:39:01.698Z,10.20
2018-03-23T15:41:29.836Z,10.10
2018-03-23T15:43:58.947Z,9.80
2018-03-23T15:46:27.083Z,9.80
2018-03-23T15:48:55.312Z,9.60
2018-03-23T15:51:23.451Z,9.40
2018-03-23T15:53:51.647Z,9.30
2018-03-23T15:56:19.870Z,9.20
2018-03-23T15:58:48.027Z,9.10
2018-03-23T16:01:16.221Z,8.90
2018-03-23T16:03:44.362Z,8.80
2018-03-23T16:06:12.514Z,8.70
2018-03-23T16:08:40.656Z,8.70
2018-03-23T16:11:09.792Z,8.70
2018-03-23T16:13:37.977Z,8.70
2018-03-23T16:16:06.148Z,8.70
2018-03-23T16:18:34.781Z,8.60
2018-03-23T16:21:02.911Z,8.50
2018-03-23T16:23:31.156Z,8.40
2018-03-23T16:25:59.352Z,8.30
2018-03-23T16:28:27.518Z,8.20
2018-03-23T16:30:55.671Z,8.20
2018-03-23T16:33:23.921Z,8.20
2018-03-23T16:35:52.963Z,8.10
2018-03-23T16:38:21.171Z,8.10
2018-03-23T16:40:49.326Z,8.10
2018-03-23T16:43:17.479Z,8.10
2018-03-23T16:45:45.672Z,8.00
2018-03-23T16:48:14.048Z,7.80
2018-03-23T16:50:42.293Z,7.70
2018-03-23T16:53:10.480Z,7.70
2018-03-23T16:55:38.839Z,7.70
2018-03-23T16:58:06.967Z,7.80
2018-03-23T17:00:35.196Z,7.70
2018-03-23T17:03:03.321Z,7.70
2018-03-23T17:05:32.231Z,7.60
2018-03-23T17:12:48.355Z,7.20
2018-03-23T17:15:16.536Z,7.00
2018-03-23T17:17:44.721Z,7.00
2018-03-23T17:20:12.963Z,6.90
2018-03-23T17:22:41.907Z,6.90
2018-03-23T17:25:10.185Z,6.90
2018-03-23T17:27:38.463Z,7.00
2018-03-23T17:30:06.588Z,7.00
2018-03-23T17:32:34.732Z,7.00
2018-03-23T17:35:02.888Z,7.00
2018-03-23T17:37:31.031Z,7.00
2018-03-23T17:39:59.195Z,7.00
2018-03-23T17:42:27.359Z,7.00
2018-03-23T17:44:55.506Z,7.00
2018-03-23T17:47:24.619Z,7.00
2018-03-23T17:49:52.771Z,7.00
2018-03-23T17:52:21.696Z,7.00
2018-03-23T17:54:49.864Z,7.00
2018-03-23T17:57:18.001Z,7.00
2018-03-23T17:59:47.364Z,7.00
2018-03-23T18:02:15.522Z,7.00
2018-03-23T18:04:43.706Z,7.00
2018-03-23T18:07:11.872Z,7.10
2018-03-23T18:09:40.012Z,7.10
2018-03-23T18:12:08.168Z,7.10
2018-03-23T18:14:37.072Z,7.10
2018-03-23T18:17:06.460Z,7.00
2018-03-23T18:19:34.592Z,7.00
2018-03-23T18:22:02.744Z,7.00
2018-03-23T18:24:31.387Z,6.90
2018-03-23T18:27:00.308Z,6.70
2018-03-23T18:29:28.445Z,6.70
2018-03-23T18:31:56.661Z,6.70
2018-03-23T18:34:24.796Z,6.70
2018-03-23T18:36:52.919Z,6.70
2018-03-23T18:39:21.140Z,6.70
2018-03-23T18:41:50.057Z,6.70
2018-03-23T18:44:18.178Z,6.70
2018-03-23T18:46:46.332Z,6.70
2018-03-23T18:49:14.492Z,6.80
2018-03-23T18:51:43.100Z,6.10
2018-03-23T18:54:11.335Z,6.30
2018-03-23T18:56:39.458Z,6.50
2018-03-23T18:59:07.632Z,6.50
2018-03-23T19:01:35.752Z,6.60
2018-03-23T19:04:03.928Z,6.60
2018-03-23T19:06:32.126Z,6.60
2018-03-23T19:09:00.285Z,6.70
2018-03-23T19:11:29.468Z,6.80
2018-03-23T19:13:57.631Z,6.80
2018-03-23T19:16:25.760Z,6.80
2018-03-23T19:18:53.992Z,6.80
2018-03-23T19:21:22.121Z,6.80
2018-03-23T19:23:51.608Z,6.80
2018-03-23T19:26:19.755Z,6.80
2018-03-23T19:28:48.117Z,6.90
2018-03-23T19:31:17.000Z,6.80
2018-03-23T19:33:45.135Z,6.80
2018-03-23T19:36:13.412Z,6.70
2018-03-23T19:38:41.537Z,6.70
2018-03-23T19:41:09.664Z,6.40
2018-03-23T19:43:38.593Z,6.10
2018-03-23T19:46:06.719Z,6.00
2018-03-23T19:48:34.859Z,6.20
2018-03-23T19:51:03.004Z,6.30
2018-03-23T19:53:31.168Z,6.30
2018-03-23T20:02:59.937Z,6.30
2018-03-23T20:05:28.792Z,6.10
2018-03-23T20:07:56.944Z,6.00
2018-03-23T20:10:25.883Z,5.90
2018-03-23T20:12:54.032Z,5.90
2018-03-23T20:15:22.208Z,5.90
2018-03-23T20:17:56.011Z,6.00
2018-03-23T20:20:29.646Z,6.00
2018-03-23T20:22:57.889Z,6.10
2018-03-23T20:25:26.581Z,6.10
2018-03-23T20:28:00.347Z,6.10
2018-03-23T20:30:29.244Z,6.20
2018-03-23T20:32:58.328Z,6.20
2018-03-23T20:35:27.244Z,6.20
2018-03-23T20:37:55.394Z,6.20
2018-03-23T20:40:24.304Z,6.30
2018-03-23T20:42:52.460Z,6.20
2018-03-23T20:45:21.397Z,6.20
2018-03-23T20:47:49.554Z,6.20
2018-03-23T20:50:18.405Z,6.30
2018-03-23T20:52:47.340Z,6.30
2018-03-23T20:55:15.492Z,6.30
2018-03-23T20:57:43.657Z,6.00
2018-03-23T21:00:11.787Z,6.00
2018-03-23T21:02:39.950Z,6.00
2018-03-23T21:05:08.212Z,6.10
2018-03-23T21:07:36.340Z,6.20
2018-03-23T21:10:05.253Z,6.20
2018-03-23T21:12:34.008Z,6.20
2018-03-23T21:15:02.961Z,6.30
2018-03-23T21:17:31.096Z,6.20
2018-03-23T21:19:59.238Z,6.30
2018-03-23T21:22:27.383Z,6.20
2018-03-23T21:24:56.055Z,6.30
2018-03-23T21:27:24.181Z,6.20
2018-03-23T21:29:53.089Z,6.10
2018-03-23T21:32:21.269Z,6.10
2018-03-23T21:34:49.412Z,6.10
2018-03-23T21:37:18.312Z,5.90
2018-03-23T21:39:47.195Z,5.90
2018-03-23T21:42:16.098Z,5.90
2018-03-23T21:44:44.290Z,5.90
2018-03-23T21:47:12.451Z,6.00
2018-03-23T21:49:40.615Z,6.00
2018-03-23T21:52:08.824Z,6.00
2018-03-23T21:54:36.987Z,6.10
2018-03-23T21:57:05.115Z,6.10
2018-03-23T21:59:33.994Z,5.80
2018-03-23T22:02:02.138Z,5.80
2018-03-23T22:04:30.282Z,5.80
2018-03-23T22:06:58.424Z,5.70
2018-03-23T22:09:27.311Z,5.60
2018-03-23T22:11:56.335Z,5.60
2018-03-23T22:14:24.492Z,5.60
2018-03-23T22:16:52.689Z,5.70
2018-03-23T22:19:20.835Z,5.80
2018-03-23T22:21:49.755Z,5.80
2018-03-23T22:24:17.915Z,5.80
2018-03-23T22:26:46.764Z,5.90
2018-03-23T22:29:14.913Z,5.90
2018-03-23T22:31:43.052Z,5.90
2018-03-23T22:34:11.196Z,5.80
2018-03-23T22:36:40.088Z,5.90
2018-03-23T22:39:09.016Z,5.90
2018-03-23T22:41:37.972Z,5.80
2018-03-23T22:44:06.875Z,5.90
2018-03-23T22:46:35.004Z,5.90
2018-03-23T22:49:03.147Z,5.90
2018-03-23T22:51:31.268Z,6.00
2018-03-23T22:54:00.169Z,6.00
2018-03-23T22:56:29.794Z,6.00
2018-03-23T22:58:57.999Z,6.00
2018-03-23T23:01:26.231Z,6.00
2018-03-23T23:03:54.352Z,5.90
2018-03-23T23:06:22.487Z,5.80
2018-03-23T23:08:50.666Z,5.90
2018-03-23T23:11:18.847Z,5.90
2018-03-23T23:13:46.966Z,5.90
2018-03-23T23:16:15.899Z,5.90
2018-03-23T23:18:44.071Z,5.90
2018-03-23T23:21:12.260Z,5.90
2018-03-23T23:23:40.444Z,5.90
2018-03-23T23:26:08.573Z,5.70
2018-03-23T23:28:36.699Z,5.70
2018-03-23T23:31:04.920Z,5.70
2018-03-23T23:33:33.107Z,5.70
2018-03-23T23:36:01.253Z,5.60
2018-03-23T23:38:30.145Z,5.60
2018-03-23T23:40:59.026Z,5.70
2018-03-23T23:43:27.943Z,5.70
2018-03-23T23:45:56.052Z,5.70
2018-03-23T23:48:24.212Z,5.80
2018-03-23T23:50:52.351Z,5.80
2018-03-23T23:53:20.531Z,5.80
2018-03-23T23:55:48.719Z,5.80
2018-03-23T23:58:17.595Z,5.80
